Impacts TAF Board INFO
FOR SITUATIONAL AWARENESS. NOT TO BE USED FOR FLIGHT PLANNING PURPOSES.
IDs:

KHBG - Hattiesburg/Chain Mu, MS, US

Issued at 1228 UTC 21 May 2018
Updated at 1311 UTC 21 May 2018
Potential Impact None Slight Moderate High
Time1253Z 21/14Z 21/15Z 21/16Z 21/17Z 21/18Z 21/19Z 21/20Z 21/21Z 21/22Z 21/23Z 22/00Z 22/01Z 22/02Z>>
Type OBS PRVL PRVL PRVL PRVL PRVL PRVL PRVL PRVL PRVL PRVL PRVL PRVL PRVL
VIS 4 >6 >6 >6 >6 >6 >6 >6 >6 >6 >6 >6 >6 >6
CIG 3 -- -- 30 30 30 30 40 40 40 40 40 250 250
Cover OVC SCT SCT BKN BKN BKN BKN BKN BKN BKN BKN BKN BKN BKN
FltCat LIFR VFR VFR MVFR MVFR MVFR MVFR VFR VFR VFR VFR VFR VFR VFR
WX BR -- -- -- -- -- -- VCTS VCTS VCTS VCTS VCTS -- --
WDir VRB 90 90 100 100 100 100 50 50 50 50 50 VRB VRB
WSpd 0 3 3 4 4 4 4 5 5 5 5 5 0 0
WGst -- -- -- -- -- -- -- -- -- -- -- -- -- --

Raw TAF
KHBG 211228Z 2112/2212 00000KT 2SM BR OVC002
  FM211400 09003KT P6SM SCT015 SCT250
  FM211600 10004KT P6SM BKN030
  FM212000 05005KT P6SM VCTS BKN040CB BKN100
  FM220100 00000KT P6SM SCT070 BKN250
  FM221000 00000KT 4SM BR BKN012


Raw METAR
KHBG 211253Z AUTO 00000KT 4SM BR OVC003 22/22 A3007 RMK AO2 SLP179 T02170217
KHBG 211226Z AUTO 00000KT 4SM BR OVC002 22/22 A3007 RMK AO2 T02170217
KHBG 211218Z AUTO 00000KT 2SM BR OVC002 22/22 A3007 RMK AO2 T02170217
KHBG 211213Z AUTO 00000KT 3/4SM BR VV002 21/21 A3006 RMK AO2 T02110211
KHBG 211153Z AUTO 00000KT 1/4SM FG VV002 21/21 A3005 RMK AO2 SLP172 70030 T02110211 10222 20211 53014
KHBG 211103Z AUTO 00000KT 1/4SM FG VV002 21/21 A3002 RMK AO2 T02110211
KHBG 211053Z AUTO 00000KT 1/2SM FG VV002 21/21 A3002 RMK AO2 SLP163 T02110211
KHBG 211040Z AUTO 00000KT 3/4SM BR OVC002 21/21 A3002 RMK AO2 T02110211

METAR Board
Radar Display
Forecast Discussion

FOR SITUATIONAL AWARENESS. NOT TO BE USED FOR FLIGHT PLANNING PURPOSES.